createdAt,value
2022-09-09T00:00:55.909Z,4.40
2022-09-09T00:01:56.285Z,2.60
2022-09-09T00:02:56.548Z,2.80
2022-09-09T00:03:56.726Z,3.60
2022-09-09T00:04:57.004Z,2.20
2022-09-09T00:05:57.247Z,2.00
2022-09-09T00:06:57.459Z,2.00
2022-09-09T00:07:57.726Z,2.20
2022-09-09T00:08:57.975Z,2.00
2022-09-09T00:09:58.224Z,1.80
2022-09-09T00:10:58.510Z,1.90
2022-09-09T00:11:58.800Z,1.90
2022-09-09T00:12:59.101Z,1.90
2022-09-09T00:13:59.446Z,2.00
2022-09-09T00:14:59.684Z,2.10
2022-09-09T00:16:00.021Z,1.80
2022-09-09T00:17:00.168Z,2.00
2022-09-09T00:18:00.537Z,2.10
2022-09-09T00:19:00.777Z,2.00
2022-09-09T00:20:01.024Z,1.90
2022-09-09T00:21:01.257Z,2.00
2022-09-09T00:22:01.548Z,1.80
2022-09-09T00:23:01.849Z,2.10
2022-09-09T00:24:02.079Z,1.90
2022-09-09T00:25:02.438Z,2.20
2022-09-09T00:26:02.711Z,1.70
2022-09-09T00:27:03.004Z,1.80
2022-09-09T00:28:03.300Z,1.90
2022-09-09T00:29:03.655Z,2.30
2022-09-09T00:30:03.927Z,2.00
2022-09-09T00:31:04.189Z,3.40
2022-09-09T00:32:04.459Z,2.10
2022-09-09T00:33:04.781Z,2.60
2022-09-09T00:34:05.107Z,2.30
2022-09-09T00:35:05.443Z,2.20
2022-09-09T00:36:05.685Z,2.00
2022-09-09T00:37:05.989Z,2.20
2022-09-09T00:38:06.237Z,1.90
2022-09-09T00:39:06.573Z,2.20
2022-09-09T00:40:06.792Z,1.90
2022-09-09T00:41:06.989Z,2.00
2022-09-09T00:42:07.244Z,2.00
2022-09-09T00:43:07.523Z,2.20
2022-09-09T00:44:07.834Z,1.90
2022-09-09T00:45:08.108Z,2.00
2022-09-09T00:46:08.384Z,1.90
2022-09-09T00:47:08.713Z,1.90
2022-09-09T00:48:08.933Z,1.90
2022-09-09T00:49:09.350Z,2.00
2022-09-09T00:50:09.713Z,2.10
2022-09-09T00:51:09.975Z,1.80
2022-09-09T00:52:10.348Z,1.90
2022-09-09T00:53:10.529Z,1.80
2022-09-09T00:54:10.817Z,2.10
2022-09-09T00:55:11.116Z,1.80
2022-09-09T00:56:11.436Z,1.90
2022-09-09T00:57:11.787Z,2.10
2022-09-09T00:58:12.006Z,2.00
2022-09-09T00:59:12.294Z,1.90
2022-09-09T01:00:12.633Z,2.60
2022-09-09T01:01:12.939Z,1.90
2022-09-09T01:02:13.176Z,1.90
2022-09-09T01:03:13.461Z,1.90
2022-09-09T01:04:13.697Z,2.00
2022-09-09T01:05:13.922Z,1.70
2022-09-09T01:06:14.236Z,1.90
2022-09-09T01:07:14.518Z,1.70
2022-09-09T01:08:14.775Z,2.00
2022-09-09T01:09:15.091Z,1.80
2022-09-09T01:10:15.371Z,1.70
2022-09-09T01:11:15.638Z,1.80
2022-09-09T01:12:15.915Z,1.70
2022-09-09T01:13:16.288Z,1.90
2022-09-09T01:14:16.498Z,1.80
2022-09-09T01:15:16.809Z,1.90
2022-09-09T01:16:17.201Z,1.70
2022-09-09T01:17:17.440Z,1.80
2022-09-09T01:18:17.805Z,1.80
2022-09-09T01:19:18.030Z,1.60
2022-09-09T01:20:18.363Z,1.60
2022-09-09T01:21:18.671Z,1.90
2022-09-09T01:22:19.016Z,1.80
2022-09-09T01:23:19.270Z,1.80
2022-09-09T01:24:19.601Z,1.70
2022-09-09T01:25:19.907Z,1.80
2022-09-09T01:26:20.237Z,1.80
2022-09-09T01:27:20.563Z,1.70
2022-09-09T01:28:20.841Z,1.70
2022-09-09T01:29:21.043Z,1.80
2022-09-09T01:30:21.300Z,1.70
2022-09-09T01:31:21.556Z,1.80
2022-09-09T01:32:21.810Z,1.80
2022-09-09T01:33:22.133Z,1.70
2022-09-09T01:34:22.439Z,2.00
2022-09-09T01:35:22.771Z,1.80
2022-09-09T01:36:23.055Z,1.70
2022-09-09T01:37:23.435Z,1.80
2022-09-09T01:38:23.655Z,1.80
2022-09-09T01:39:23.914Z,1.90
2022-09-09T01:40:24.200Z,2.00
2022-09-09T01:41:24.518Z,1.80
2022-09-09T01:42:24.830Z,2.00
2022-09-09T01:43:25.048Z,2.10
2022-09-09T01:44:25.311Z,2.00
2022-09-09T01:45:25.553Z,2.00
2022-09-09T01:46:25.926Z,2.00
2022-09-09T01:47:26.188Z,1.80
2022-09-09T01:48:26.392Z,1.90
2022-09-09T01:49:26.666Z,1.80
2022-09-09T01:50:26.885Z,1.80
2022-09-09T01:51:27.199Z,1.80
2022-09-09T01:52:27.579Z,2.00
2022-09-09T01:53:27.861Z,1.90
2022-09-09T01:54:28.393Z,1.90
2022-09-09T01:55:28.461Z,1.70
2022-09-09T01:56:28.741Z,1.80
2022-09-09T01:57:28.954Z,1.80
2022-09-09T01:58:29.328Z,1.90
2022-09-09T01:59:29.594Z,2.00
2022-09-09T02:00:29.876Z,1.70
2022-09-09T02:01:30.150Z,1.80
2022-09-09T02:02:30.380Z,2.00
2022-09-09T02:03:30.642Z,1.70
2022-09-09T02:04:31.032Z,1.70
2022-09-09T02:05:31.285Z,2.10
2022-09-09T02:06:31.655Z,1.90
2022-09-09T02:07:31.866Z,1.90
2022-09-09T02:08:32.223Z,1.90
2022-09-09T02:09:32.517Z,1.80
2022-09-09T02:10:32.751Z,2.00
2022-09-09T02:11:33.067Z,2.10
2022-09-09T02:12:33.293Z,2.00
2022-09-09T02:13:33.580Z,1.70
2022-09-09T02:14:33.798Z,1.90
2022-09-09T02:15:34.157Z,1.90
2022-09-09T02:16:34.523Z,1.80
2022-09-09T02:17:34.692Z,1.80
2022-09-09T02:18:35.186Z,1.90
2022-09-09T02:19:35.310Z,1.70
2022-09-09T02:20:35.575Z,1.70
2022-09-09T02:21:35.846Z,1.70
2022-09-09T02:22:36.090Z,1.70
2022-09-09T02:23:36.370Z,1.80
2022-09-09T02:24:36.669Z,1.70
2022-09-09T02:25:36.908Z,1.60
2022-09-09T02:26:37.224Z,1.80
2022-09-09T02:27:37.507Z,1.70
2022-09-09T02:28:37.925Z,1.70
2022-09-09T02:29:38.113Z,1.70
2022-09-09T02:30:38.363Z,1.80
2022-09-09T02:31:39.663Z,1.60
2022-09-09T02:32:38.973Z,1.60
2022-09-09T02:33:39.277Z,1.60
2022-09-09T02:34:39.629Z,1.70
2022-09-09T02:35:39.862Z,2.00
2022-09-09T02:36:40.171Z,1.70
2022-09-09T02:37:40.379Z,1.70
2022-09-09T02:38:40.693Z,1.60
2022-09-09T02:39:41.092Z,1.80
2022-09-09T02:40:41.356Z,1.70
2022-09-09T02:41:41.655Z,1.60
2022-09-09T02:42:41.875Z,1.80
2022-09-09T02:43:42.142Z,1.50
2022-09-09T02:44:42.417Z,1.90
2022-09-09T02:45:42.709Z,1.80
2022-09-09T02:46:42.999Z,1.60
2022-09-09T02:47:43.228Z,1.70
2022-09-09T02:48:43.589Z,1.60
2022-09-09T02:49:43.879Z,1.70
2022-09-09T02:50:44.261Z,1.80
2022-09-09T02:51:44.445Z,1.80
2022-09-09T02:52:44.675Z,1.70
2022-09-09T02:53:44.965Z,1.70
2022-09-09T02:54:45.287Z,1.60
2022-09-09T02:55:45.527Z,1.60
2022-09-09T02:56:45.844Z,1.70
2022-09-09T02:57:46.268Z,1.60
2022-09-09T02:58:46.414Z,1.70
2022-09-09T02:59:46.696Z,1.70
2022-09-09T03:00:46.939Z,1.70
2022-09-09T03:01:47.214Z,1.70
2022-09-09T03:02:47.636Z,1.60
2022-09-09T03:03:47.846Z,1.60
2022-09-09T03:04:48.146Z,1.70
2022-09-09T03:05:48.504Z,1.70
2022-09-09T03:06:48.789Z,1.70
2022-09-09T03:07:48.981Z,1.40
2022-09-09T03:08:49.870Z,1.60
2022-09-09T03:09:49.593Z,1.60
2022-09-09T03:10:49.886Z,1.70
2022-09-09T03:11:50.142Z,1.60
2022-09-09T03:12:50.460Z,1.70
2022-09-09T03:13:50.802Z,1.70
2022-09-09T03:14:51.096Z,1.80
2022-09-09T03:15:51.376Z,1.70
2022-09-09T03:16:51.701Z,1.70
2022-09-09T03:17:52.059Z,1.60
2022-09-09T03:18:52.325Z,1.70
2022-09-09T03:19:52.589Z,1.60
2022-09-09T03:20:52.839Z,1.70
2022-09-09T03:21:53.134Z,1.60
2022-09-09T03:22:53.439Z,1.70
2022-09-09T03:23:53.765Z,1.60
2022-09-09T03:24:54.000Z,1.60
2022-09-09T03:25:54.227Z,1.80
2022-09-09T03:26:54.559Z,1.70
2022-09-09T03:27:54.870Z,1.90
2022-09-09T03:28:55.185Z,1.80
2022-09-09T03:29:55.342Z,1.90
2022-09-09T03:30:55.641Z,1.80
2022-09-09T03:31:55.973Z,1.60
2022-09-09T03:32:56.274Z,1.70
2022-09-09T03:33:56.536Z,1.60
2022-09-09T03:34:56.835Z,1.60
2022-09-09T03:35:57.138Z,1.60
2022-09-09T03:36:57.483Z,1.60
2022-09-09T03:37:57.678Z,1.60
2022-09-09T03:38:57.981Z,1.50
2022-09-09T03:39:58.321Z,1.60
2022-09-09T03:40:58.615Z,1.60
2022-09-09T03:41:58.962Z,1.50
2022-09-09T03:42:59.164Z,2.10
2022-09-09T03:43:59.487Z,1.50
2022-09-09T03:44:59.807Z,1.70
2022-09-09T03:46:00.140Z,1.60
2022-09-09T03:47:00.320Z,1.70
2022-09-09T03:48:00.651Z,2.00
2022-09-09T03:49:00.870Z,1.80
2022-09-09T03:50:01.266Z,1.60
2022-09-09T03:51:01.630Z,1.70
2022-09-09T03:52:01.812Z,1.80
2022-09-09T03:53:02.181Z,1.90
2022-09-09T03:54:02.495Z,1.60
2022-09-09T03:55:02.831Z,1.60
2022-09-09T03:56:03.105Z,1.50
2022-09-09T03:57:03.420Z,1.50
2022-09-09T03:58:03.645Z,1.50
2022-09-09T03:59:03.847Z,1.60
2022-09-09T04:00:04.159Z,1.50
2022-09-09T04:01:04.574Z,1.60
2022-09-09T04:02:04.791Z,1.50
2022-09-09T04:03:04.926Z,1.50
2022-09-09T04:04:05.209Z,1.40
2022-09-09T04:05:05.501Z,1.60
2022-09-09T04:06:05.741Z,1.60
2022-09-09T04:07:06.067Z,1.70
2022-09-09T04:08:06.375Z,1.50
2022-09-09T04:09:06.678Z,1.70
2022-09-09T04:10:07.048Z,1.60
2022-09-09T04:11:07.274Z,1.40
2022-09-09T04:12:07.510Z,1.60
2022-09-09T04:13:07.776Z,1.60
2022-09-09T04:14:08.093Z,1.60
2022-09-09T04:15:08.330Z,1.50
2022-09-09T04:16:08.711Z,1.50
2022-09-09T04:17:08.896Z,1.60
2022-09-09T04:18:09.212Z,1.40
2022-09-09T04:19:09.424Z,1.40
2022-09-09T04:20:09.803Z,1.50
2022-09-09T04:21:10.032Z,1.40
2022-09-09T04:22:10.343Z,1.50
2022-09-09T04:23:10.602Z,1.50
2022-09-09T04:24:10.814Z,1.50
2022-09-09T04:25:11.162Z,1.50
2022-09-09T04:26:11.431Z,1.40
2022-09-09T04:27:11.603Z,1.60
2022-09-09T04:28:11.988Z,1.70
2022-09-09T04:29:12.286Z,1.60
2022-09-09T04:30:12.678Z,1.40
2022-09-09T04:31:12.939Z,1.40
2022-09-09T04:32:13.134Z,1.50
2022-09-09T04:33:13.434Z,1.70
2022-09-09T04:34:13.658Z,1.40
2022-09-09T04:35:14.070Z,1.60
2022-09-09T04:36:14.283Z,1.60
2022-09-09T04:37:14.596Z,1.60
2022-09-09T04:38:14.950Z,1.30
2022-09-09T04:39:15.169Z,1.50
2022-09-09T04:40:15.546Z,1.40
2022-09-09T04:41:15.755Z,1.40
2022-09-09T04:42:16.054Z,1.30
2022-09-09T04:43:16.412Z,1.40
2022-09-09T04:44:16.597Z,1.40
2022-09-09T04:45:16.926Z,1.60
2022-09-09T04:46:17.390Z,1.50
2022-09-09T04:47:17.575Z,1.40
2022-09-09T04:48:17.966Z,1.40
2022-09-09T04:49:18.188Z,1.30
2022-09-09T04:50:18.380Z,1.40
2022-09-09T04:51:18.709Z,1.20
2022-09-09T04:52:19.049Z,1.50
2022-09-09T04:53:19.303Z,1.40
2022-09-09T04:54:19.557Z,1.40
2022-09-09T04:55:19.833Z,1.40
2022-09-09T04:56:20.079Z,1.50
2022-09-09T04:57:20.280Z,1.30
2022-09-09T04:58:20.682Z,1.70
2022-09-09T04:59:20.879Z,1.70
2022-09-09T05:00:21.202Z,1.30
2022-09-09T05:01:21.533Z,1.30
2022-09-09T05:02:21.808Z,1.60
2022-09-09T05:03:21.999Z,1.50
2022-09-09T05:04:22.272Z,1.60
2022-09-09T05:05:22.515Z,1.30
2022-09-09T05:06:22.755Z,1.40
2022-09-09T05:07:23.020Z,1.50
2022-09-09T05:08:23.315Z,1.30
2022-09-09T05:09:23.533Z,1.60
2022-09-09T05:10:23.854Z,1.50
2022-09-09T05:11:24.107Z,1.40
2022-09-09T05:12:24.855Z,1.40
2022-09-09T05:13:24.606Z,2.00
2022-09-09T05:14:24.866Z,1.50
2022-09-09T05:15:25.086Z,1.70
2022-09-09T05:16:25.405Z,1.40
2022-09-09T05:17:25.843Z,1.50
2022-09-09T05:18:25.938Z,1.60
2022-09-09T05:19:26.138Z,1.40
2022-09-09T05:20:26.481Z,1.30
2022-09-09T05:21:26.808Z,1.40
2022-09-09T05:22:27.182Z,1.40
2022-09-09T05:23:27.423Z,1.40
2022-09-09T05:24:27.695Z,1.40
2022-09-09T05:25:27.895Z,1.60
2022-09-09T05:26:28.315Z,1.60
2022-09-09T05:27:28.484Z,1.40
2022-09-09T05:28:28.772Z,1.30
2022-09-09T05:29:28.991Z,1.30
2022-09-09T05:30:29.231Z,1.40
2022-09-09T05:31:29.552Z,1.30
2022-09-09T05:32:29.792Z,1.30
2022-09-09T05:33:30.021Z,1.30
2022-09-09T05:34:30.258Z,1.40
2022-09-09T05:35:30.602Z,1.40
2022-09-09T05:36:30.874Z,1.30
2022-09-09T05:37:31.080Z,1.50
2022-09-09T05:38:31.472Z,3.00
2022-09-09T05:39:31.762Z,1.70
2022-09-09T05:40:31.922Z,1.50
2022-09-09T05:41:32.239Z,1.50
2022-09-09T05:42:32.620Z,1.40
2022-09-09T05:43:32.834Z,1.50
2022-09-09T05:44:33.194Z,1.40
2022-09-09T05:45:33.444Z,1.40
2022-09-09T05:46:33.710Z,1.30
2022-09-09T05:47:33.985Z,1.50
2022-09-09T05:48:34.230Z,1.50
2022-09-09T05:49:34.466Z,1.40
2022-09-09T05:50:34.732Z,1.40
2022-09-09T05:51:34.942Z,1.40
2022-09-09T05:52:35.349Z,1.30
2022-09-09T05:53:35.512Z,1.50
2022-09-09T05:54:35.877Z,1.50
2022-09-09T05:55:36.214Z,1.50
2022-09-09T05:56:36.459Z,1.60
2022-09-09T05:57:36.853Z,2.20
2022-09-09T05:58:37.083Z,1.40
2022-09-09T05:59:37.296Z,1.80
2022-09-09T06:00:37.550Z,1.60
2022-09-09T06:01:38.049Z,1.30
2022-09-09T06:02:38.271Z,1.50
2022-09-09T06:03:38.491Z,1.50
2022-09-09T06:04:38.824Z,1.40
2022-09-09T06:05:39.306Z,1.40
2022-09-09T06:06:39.555Z,1.70
2022-09-09T06:07:39.835Z,1.40
2022-09-09T06:08:40.052Z,1.50
2022-09-09T06:09:40.411Z,2.40
2022-09-09T06:10:40.683Z,1.60
2022-09-09T06:11:40.885Z,2.00
2022-09-09T06:12:41.326Z,1.50
2022-09-09T06:13:41.530Z,1.50
2022-09-09T06:14:46.150Z,1.50
2022-09-09T06:15:42.226Z,1.40
2022-09-09T06:16:42.486Z,1.40
2022-09-09T06:17:42.700Z,1.40
2022-09-09T06:18:43.009Z,2.20
2022-09-09T06:19:43.245Z,1.60
2022-09-09T06:20:43.521Z,1.40
2022-09-09T06:21:43.726Z,1.70
2022-09-09T06:22:44.073Z,1.30
2022-09-09T06:23:44.473Z,1.40
2022-09-09T06:24:44.699Z,1.50
2022-09-09T06:25:44.960Z,1.40
2022-09-09T06:26:45.166Z,1.40
2022-09-09T06:27:45.550Z,1.50
2022-09-09T06:28:45.772Z,1.70
2022-09-09T06:29:46.002Z,1.50
2022-09-09T06:30:46.383Z,1.40
2022-09-09T06:31:46.765Z,1.40
2022-09-09T06:32:46.930Z,1.50
2022-09-09T06:33:47.154Z,1.40
2022-09-09T06:34:47.369Z,1.40
2022-09-09T06:35:47.643Z,2.40
2022-09-09T06:36:47.884Z,1.60
2022-09-09T06:37:48.164Z,1.60
2022-09-09T06:38:48.403Z,1.60
2022-09-09T06:39:48.770Z,2.20
2022-09-09T06:40:48.969Z,1.80
2022-09-09T06:41:49.206Z,1.50
2022-09-09T06:42:49.438Z,1.70
2022-09-09T06:43:49.844Z,1.60
2022-09-09T06:44:50.023Z,1.70
2022-09-09T06:45:50.268Z,1.60
2022-09-09T06:46:50.556Z,1.50
2022-09-09T06:47:50.756Z,1.50
2022-09-09T06:48:51.452Z,1.50
2022-09-09T06:49:51.345Z,2.00
2022-09-09T06:50:51.698Z,1.50
2022-09-09T06:51:52.069Z,2.50
2022-09-09T06:52:52.325Z,1.70
2022-09-09T06:53:54.539Z,1.70
2022-09-09T06:54:52.866Z,1.70
2022-09-09T06:55:53.099Z,2.60
2022-09-09T06:56:53.349Z,1.50
2022-09-09T06:57:53.587Z,1.60
2022-09-09T06:58:53.833Z,1.60
2022-09-09T06:59:54.309Z,1.60
2022-09-09T07:00:55.458Z,1.40
2022-09-09T07:01:56.020Z,1.50
2022-09-09T07:02:55.183Z,1.50
2022-09-09T07:03:55.355Z,1.50
2022-09-09T07:04:55.713Z,1.70
2022-09-09T07:05:55.957Z,1.40
2022-09-09T07:06:56.324Z,1.60
2022-09-09T07:07:56.616Z,1.60
2022-09-09T07:08:57.111Z,1.50
2022-09-09T07:09:57.610Z,1.60
2022-09-09T07:10:57.439Z,1.70
2022-09-09T07:11:58.152Z,1.70
2022-09-09T07:12:57.969Z,1.70
2022-09-09T07:13:58.268Z,1.80
2022-09-09T07:14:58.459Z,1.70
2022-09-09T07:15:58.741Z,1.60
2022-09-09T07:16:59.859Z,1.70
2022-09-09T07:17:59.269Z,2.00
2022-09-09T07:18:59.513Z,1.70
2022-09-09T07:19:59.720Z,1.60
2022-09-09T07:21:00.066Z,2.00
2022-09-09T07:22:00.359Z,1.70
2022-09-09T07:23:00.619Z,1.70
2022-09-09T07:24:00.926Z,1.90
2022-09-09T07:25:01.140Z,2.00
2022-09-09T07:26:01.379Z,1.70
2022-09-09T07:27:01.718Z,1.80
2022-09-09T07:28:02.025Z,1.70
2022-09-09T07:29:02.195Z,1.70
2022-09-09T07:30:02.557Z,1.50
2022-09-09T07:31:02.826Z,2.00
2022-09-09T07:32:03.077Z,1.80
2022-09-09T07:33:03.412Z,1.80
2022-09-09T07:34:03.580Z,1.80
2022-09-09T07:35:03.818Z,2.00
2022-09-09T07:36:04.093Z,1.70
2022-09-09T07:37:04.357Z,1.50
2022-09-09T07:38:04.655Z,1.60
2022-09-09T07:39:04.868Z,1.60
2022-09-09T07:40:05.200Z,1.90
2022-09-09T07:41:05.425Z,1.80
2022-09-09T07:42:06.134Z,1.70
2022-09-09T07:43:05.952Z,1.80
2022-09-09T07:44:06.245Z,1.90
2022-09-09T07:45:06.492Z,2.10
2022-09-09T07:46:06.788Z,1.80
2022-09-09T07:47:07.027Z,1.80
2022-09-09T07:48:07.282Z,1.60
2022-09-09T07:49:07.511Z,1.90
2022-09-09T07:50:07.837Z,1.90
2022-09-09T07:51:08.058Z,1.70
2022-09-09T07:52:08.429Z,2.00
2022-09-09T07:53:08.611Z,1.80
2022-09-09T07:54:08.861Z,2.20
2022-09-09T07:55:09.087Z,1.90
2022-09-09T07:56:09.389Z,1.70
2022-09-09T07:57:09.611Z,1.90
2022-09-09T07:58:09.840Z,1.70
2022-09-09T07:59:10.117Z,1.90
2022-09-09T08:00:10.408Z,1.90
2022-09-09T08:01:10.647Z,1.90
2022-09-09T08:02:10.968Z,1.90
2022-09-09T08:03:11.184Z,2.10
2022-09-09T08:04:11.499Z,1.90
2022-09-09T08:05:11.742Z,1.60
2022-09-09T08:06:12.012Z,1.70
2022-09-09T08:07:12.248Z,1.80
2022-09-09T08:08:12.477Z,3.90
2022-09-09T08:09:12.736Z,1.90
2022-09-09T08:10:13.001Z,1.80
2022-09-09T08:11:13.199Z,1.80
2022-09-09T08:12:13.474Z,1.90
2022-09-09T08:13:20.716Z,2.00
2022-09-09T08:14:14.949Z,2.00
2022-09-09T08:15:14.212Z,2.00
2022-09-09T08:16:14.600Z,1.80
2022-09-09T08:17:14.727Z,1.90
2022-09-09T08:18:14.936Z,1.80
2022-09-09T08:19:15.229Z,5.70
2022-09-09T08:20:15.463Z,2.10
2022-09-09T08:21:15.712Z,2.10
2022-09-09T08:22:16.019Z,1.90
2022-09-09T08:23:16.223Z,2.00
2022-09-09T08:24:16.584Z,2.60
2022-09-09T08:25:16.755Z,2.40
2022-09-09T08:26:17.007Z,2.50
2022-09-09T08:27:17.340Z,3.10
2022-09-09T08:28:17.562Z,3.00
2022-09-09T08:29:17.843Z,2.00
2022-09-09T08:30:18.153Z,2.60
2022-09-09T08:31:18.570Z,2.30
2022-09-09T08:32:18.729Z,2.50
2022-09-09T08:33:18.939Z,2.10
2022-09-09T08:34:19.303Z,2.30
2022-09-09T08:35:19.623Z,2.40
2022-09-09T08:36:19.861Z,2.30
2022-09-09T08:37:20.095Z,2.40
2022-09-09T08:38:20.444Z,1.90
2022-09-09T08:39:20.651Z,1.80
2022-09-09T08:40:20.964Z,1.90
2022-09-09T08:41:21.185Z,2.10
2022-09-09T08:42:21.427Z,2.20
2022-09-09T08:43:21.769Z,2.00
2022-09-09T08:44:22.053Z,2.00
2022-09-09T08:45:22.317Z,2.00
2022-09-09T08:46:22.602Z,2.20
2022-09-09T08:47:22.834Z,1.90
2022-09-09T08:48:23.055Z,1.90
2022-09-09T08:49:23.351Z,1.80
2022-09-09T08:50:23.618Z,1.80
2022-09-09T08:51:23.829Z,1.90
2022-09-09T08:52:24.046Z,2.20
2022-09-09T08:53:24.323Z,2.10
2022-09-09T08:54:48.422Z,1.90
2022-09-09T08:55:25.909Z,2.20
2022-09-09T08:56:25.164Z,1.90
2022-09-09T08:57:25.473Z,2.00
2022-09-09T08:58:25.686Z,2.10
2022-09-09T08:59:26.808Z,2.00
2022-09-09T09:00:26.245Z,2.00
2022-09-09T09:01:26.533Z,2.10
2022-09-09T09:02:26.733Z,2.00
2022-09-09T09:03:26.958Z,2.10
2022-09-09T09:04:27.263Z,2.20
2022-09-09T09:05:27.513Z,1.90
2022-09-09T09:06:27.800Z,2.00
2022-09-09T09:07:32.570Z,2.30
2022-09-09T09:08:28.340Z,2.00
2022-09-09T09:09:28.596Z,2.10
2022-09-09T09:10:41.639Z,5.00
2022-09-09T09:11:30.084Z,2.20
2022-09-09T09:12:29.772Z,2.10
2022-09-09T09:13:29.609Z,2.10
2022-09-09T09:14:29.894Z,2.00
2022-09-09T09:15:32.570Z,2.00
2022-09-09T09:16:30.411Z,2.10
2022-09-09T09:17:30.675Z,2.00
2022-09-09T09:18:30.960Z,2.00
2022-09-09T09:19:31.204Z,2.30
2022-09-09T09:20:31.424Z,2.20
2022-09-09T09:21:31.683Z,2.00
2022-09-09T09:22:31.942Z,2.90
2022-09-09T09:23:33.221Z,2.20
2022-09-09T09:24:32.509Z,2.30
2022-09-09T09:25:32.773Z,2.10
2022-09-09T09:26:33.013Z,2.40
2022-09-09T09:27:33.302Z,2.00
2022-09-09T09:28:33.568Z,2.40
2022-09-09T09:29:38.769Z,2.00
2022-09-09T09:30:35.100Z,2.40
2022-09-09T09:31:34.361Z,2.00
2022-09-09T09:32:34.626Z,1.80
2022-09-09T09:33:34.866Z,2.20
2022-09-09T09:34:35.112Z,2.30
2022-09-09T09:35:40.508Z,2.10
2022-09-09T09:36:36.743Z,2.20
2022-09-09T09:37:36.483Z,2.50
2022-09-09T09:40:37.838Z,2.60
2022-09-09T09:41:37.120Z,2.60
2022-09-09T09:42:37.409Z,2.40
2022-09-09T09:43:37.861Z,2.50
2022-09-09T09:44:37.922Z,2.90
2022-09-09T09:45:38.186Z,2.50
2022-09-09T09:46:38.545Z,2.40
2022-09-09T09:47:38.715Z,2.30
2022-09-09T09:48:38.953Z,2.50
2022-09-09T09:49:39.196Z,2.60
2022-09-09T09:50:39.436Z,2.90
2022-09-09T09:51:39.810Z,2.90
2022-09-09T09:52:40.087Z,2.40
2022-09-09T09:53:40.324Z,2.80
2022-09-09T09:54:40.546Z,3.00
2022-09-09T09:55:40.816Z,2.70
2022-09-09T09:56:41.073Z,2.50
2022-09-09T09:57:41.333Z,2.50
2022-09-09T09:58:41.585Z,2.30
2022-09-09T09:59:41.960Z,2.50
2022-09-09T10:00:42.139Z,2.40
2022-09-09T10:01:42.445Z,2.10
2022-09-09T10:02:42.656Z,2.60
2022-09-09T10:03:42.893Z,1.90
2022-09-09T10:04:43.190Z,2.00
2022-09-09T10:05:43.403Z,2.00
2022-09-09T10:06:43.683Z,2.00
2022-09-09T10:07:44.056Z,1.80
2022-09-09T10:08:44.268Z,2.00
2022-09-09T10:09:44.513Z,2.20
2022-09-09T10:10:47.950Z,1.90
2022-09-09T10:11:45.109Z,1.60
2022-09-09T10:12:45.453Z,1.50
2022-09-09T10:13:45.687Z,1.50
2022-09-09T10:14:45.961Z,1.60
2022-09-09T10:15:46.352Z,1.60
2022-09-09T10:16:46.437Z,1.70
2022-09-09T10:17:46.688Z,1.60
2022-09-09T10:18:46.942Z,1.80
2022-09-09T10:19:47.194Z,1.80
2022-09-09T10:20:47.455Z,1.70
2022-09-09T10:21:47.740Z,1.60
2022-09-09T10:22:47.966Z,1.60
2022-09-09T10:23:48.231Z,1.60
2022-09-09T10:24:48.601Z,1.90
2022-09-09T10:25:48.818Z,1.70
2022-09-09T10:26:49.087Z,1.60
2022-09-09T10:27:49.351Z,1.60
2022-09-09T10:28:49.654Z,1.70
2022-09-09T10:29:50.362Z,1.70
2022-09-09T10:30:50.229Z,2.00
2022-09-09T10:31:50.495Z,1.90
2022-09-09T10:32:50.875Z,2.20
2022-09-09T10:33:51.005Z,2.20
2022-09-09T10:34:51.338Z,2.10
2022-09-09T10:35:51.727Z,2.10
2022-09-09T10:36:51.934Z,1.80
2022-09-09T10:37:52.139Z,2.00
2022-09-09T10:38:52.925Z,2.00
2022-09-09T10:39:52.807Z,2.00
2022-09-09T10:40:52.894Z,2.10
2022-09-09T10:41:53.147Z,2.00
2022-09-09T10:42:53.516Z,2.10
2022-09-09T10:43:56.398Z,2.30
2022-09-09T10:44:54.999Z,2.40
2022-09-09T10:45:54.390Z,2.30
2022-09-09T10:46:54.510Z,3.10
2022-09-09T10:47:54.798Z,2.40
2022-09-09T10:48:55.038Z,2.60
2022-09-09T10:49:55.317Z,2.30
2022-09-09T10:51:04.705Z,2.30
2022-09-09T10:51:56.883Z,2.30
2022-09-09T10:52:56.260Z,2.40
2022-09-09T10:53:56.481Z,2.60
2022-09-09T10:54:56.796Z,2.70
2022-09-09T10:55:57.033Z,2.20
2022-09-09T10:56:57.304Z,2.20
2022-09-09T10:57:57.540Z,2.00
2022-09-09T10:58:57.795Z,2.30
2022-09-09T10:59:58.093Z,2.40
2022-09-09T11:00:58.382Z,2.50
2022-09-09T11:01:58.654Z,2.20
2022-09-09T11:02:59.004Z,3.00
2022-09-09T11:04:00.207Z,2.30
2022-09-09T11:04:59.495Z,2.60
2022-09-09T11:05:59.809Z,2.70
2022-09-09T11:07:00.053Z,4.40
2022-09-09T11:08:00.428Z,2.30
2022-09-09T11:09:00.741Z,2.10
2022-09-09T11:10:00.865Z,2.00
2022-09-09T11:11:01.133Z,2.20
2022-09-09T11:12:01.412Z,2.20
2022-09-09T11:13:01.703Z,2.40
2022-09-09T11:14:02.929Z,2.20
2022-09-09T11:15:02.213Z,2.30
2022-09-09T11:16:02.510Z,2.30
2022-09-09T11:17:02.777Z,2.20
2022-09-09T11:18:02.986Z,2.00
2022-09-09T11:19:03.312Z,2.40
2022-09-09T11:20:03.571Z,2.20
2022-09-09T11:21:03.838Z,2.00
2022-09-09T11:22:04.125Z,2.20
2022-09-09T11:23:04.400Z,2.10
2022-09-09T11:24:04.759Z,2.30
2022-09-09T11:25:04.946Z,2.60
2022-09-09T11:26:05.240Z,2.40
2022-09-09T11:27:05.570Z,2.10
2022-09-09T11:28:05.748Z,2.50
2022-09-09T11:29:06.112Z,2.40
2022-09-09T11:30:06.438Z,2.30
2022-09-09T11:31:06.672Z,2.60
2022-09-09T11:32:06.879Z,2.60
2022-09-09T11:33:07.154Z,3.10
2022-09-09T11:34:07.447Z,2.40
2022-09-09T11:35:07.669Z,3.60
2022-09-09T11:36:08.155Z,4.70
2022-09-09T11:37:08.127Z,4.70
2022-09-09T11:38:08.367Z,2.80
2022-09-09T11:39:09.579Z,5.90
2022-09-09T11:40:08.866Z,2.70
2022-09-09T11:41:09.155Z,2.60
2022-09-09T11:42:09.436Z,2.40
2022-09-09T11:43:09.691Z,2.40
2022-09-09T11:44:09.950Z,2.60
2022-09-09T11:45:10.292Z,2.30
2022-09-09T11:46:10.616Z,2.30
2022-09-09T11:47:11.016Z,2.30
2022-09-09T11:48:11.081Z,2.40
2022-09-09T11:49:11.363Z,2.40
2022-09-09T11:50:11.589Z,3.10
2022-09-09T11:51:16.668Z,2.40
2022-09-09T11:52:13.284Z,2.10
2022-09-09T11:53:12.548Z,2.30
2022-09-09T11:54:12.776Z,2.20
2022-09-09T11:55:13.009Z,2.30
2022-09-09T11:56:13.284Z,2.10
2022-09-09T11:57:13.578Z,2.30
2022-09-09T11:58:13.804Z,3.10
2022-09-09T11:59:14.068Z,2.90
2022-09-09T12:00:14.378Z,2.70
2022-09-09T12:01:14.617Z,2.80
2022-09-09T12:02:14.943Z,2.40
2022-09-09T12:03:15.179Z,2.20
2022-09-09T12:04:18.650Z,2.10
2022-09-09T12:05:16.742Z,2.10
2022-09-09T12:06:15.949Z,2.10
2022-09-09T12:07:16.444Z,2.40
2022-09-09T12:08:16.704Z,2.20
2022-09-09T12:09:16.900Z,2.30
2022-09-09T12:10:17.235Z,2.20
2022-09-09T12:11:17.523Z,4.10
2022-09-09T12:12:17.857Z,4.50
2022-09-09T12:13:18.076Z,4.50
2022-09-09T12:14:18.350Z,4.10
2022-09-09T12:15:18.661Z,4.10
2022-09-09T12:16:19.185Z,3.80
2022-09-09T12:17:20.179Z,5.20
2022-09-09T12:18:19.523Z,5.20
2022-09-09T12:19:22.075Z,3.70
2022-09-09T12:20:21.086Z,3.00
2022-09-09T12:21:20.399Z,2.70
2022-09-09T12:22:20.669Z,3.10
2022-09-09T12:23:20.892Z,4.00
2022-09-09T12:24:21.117Z,3.00
2022-09-09T12:25:23.297Z,2.70
2022-09-09T12:26:21.705Z,2.40
2022-09-09T12:27:21.952Z,2.70
2022-09-09T12:28:22.298Z,3.20
2022-09-09T12:29:22.566Z,2.40
2022-09-09T12:30:22.785Z,2.10
2022-09-09T12:31:22.982Z,2.00
2022-09-09T12:32:23.434Z,1.60
2022-09-09T12:33:23.658Z,1.50
2022-09-09T12:34:23.967Z,2.70
2022-09-09T12:35:24.148Z,3.70
2022-09-09T12:36:24.417Z,3.70
2022-09-09T12:37:24.682Z,2.90
2022-09-09T12:38:24.954Z,2.30
2022-09-09T12:39:25.381Z,2.90
2022-09-09T12:40:25.504Z,2.70
2022-09-09T12:41:25.804Z,2.60
2022-09-09T12:42:26.039Z,2.40
2022-09-09T12:43:26.375Z,2.90
2022-09-09T12:44:26.604Z,2.60
2022-09-09T12:45:26.906Z,3.00
2022-09-09T12:46:27.216Z,2.90
2022-09-09T12:47:30.301Z,2.90
2022-09-09T12:48:27.737Z,2.90
2022-09-09T12:49:27.978Z,3.80
2022-09-09T12:50:28.270Z,5.10
2022-09-09T12:51:28.540Z,4.80
2022-09-09T12:52:28.847Z,6.20
2022-09-09T12:53:29.078Z,5.10
2022-09-09T12:54:29.358Z,4.40
2022-09-09T12:55:29.686Z,8.50
2022-09-09T12:56:29.875Z,8.20
2022-09-09T12:57:30.145Z,3.90
2022-09-09T12:58:30.425Z,4.20
2022-09-09T12:59:30.734Z,4.50
2022-09-09T13:00:31.004Z,5.90
2022-09-09T13:01:31.430Z,4.30
2022-09-09T13:02:31.630Z,4.70
2022-09-09T13:03:31.834Z,4.10
2022-09-09T13:04:32.069Z,2.90
2022-09-09T13:05:32.344Z,3.00
2022-09-09T13:06:32.628Z,3.90
2022-09-09T13:07:32.962Z,4.60
2022-09-09T13:08:33.232Z,4.00
2022-09-09T13:09:33.421Z,4.70
2022-09-09T13:10:36.761Z,4.10
2022-09-09T13:11:34.966Z,3.20
2022-09-09T13:12:34.265Z,3.30
2022-09-09T13:13:34.607Z,3.10
2022-09-09T13:14:34.813Z,3.60
2022-09-09T13:15:35.052Z,3.60
2022-09-09T13:16:40.261Z,3.80
2022-09-09T13:17:36.576Z,4.10
2022-09-09T13:18:35.852Z,4.20
2022-09-09T13:19:36.077Z,3.40
2022-09-09T13:20:36.303Z,3.80
2022-09-09T13:21:36.544Z,3.60
2022-09-09T13:22:36.803Z,3.60
2022-09-09T13:23:37.172Z,4.40
2022-09-09T13:24:37.313Z,8.20